Time;durP1;ratioP1;P1;durP2;ratioP2;P2;SDS_P1;SDS_P2;PMS_P1;PMS_P2;Temp;Humidity;BMP_temperature;BMP_pressure;BME280_temperature;BME280_humidity;BME280_pressure;Samples;Min_cycle;Max_cycle;Signal;HPM_P1;HPM_P2
2022/01/13 00:01:42;;;;;;;8.18;3.55;;;;;;;6.75;100.00;102962.72;4939771;28;20083;-71
2022/01/13 00:04:10;;;;;;;15.93;3.90;;;;;;;6.70;100.00;102954.69;4935009;29;20184;-72
2022/01/13 00:06:37;;;;;;;7.78;3.63;;;;;;;6.84;100.00;102946.91;4944529;29;20500;-71
2022/01/13 00:09:04;;;;;;;14.98;3.92;;;;;;;6.87;100.00;102955.19;4965698;28;20162;-71
2022/01/13 00:11:29;;;;;;;7.07;3.50;;;;;;;6.81;100.00;102958.97;4940363;29;20031;-72
2022/01/13 00:16:42;;;;;;;13.32;3.50;;;;;;;6.79;100.00;102958.44;4949363;29;20043;-72
2022/01/13 00:21:48;;;;;;;7.38;3.20;;;;;;;6.53;100.00;102958.75;4953435;28;20122;-71
2022/01/13 00:24:14;;;;;;;14.82;4.45;;;;;;;6.60;100.00;102962.75;4969801;28;20070;-71
2022/01/13 00:26:40;;;;;;;9.02;3.25;;;;;;;6.84;100.00;102976.34;4949229;28;20093;-71
2022/01/13 00:29:08;;;;;;;10.05;4.38;;;;;;;6.94;100.00;102979.00;4936735;28;20573;-72
2022/01/13 00:31:36;;;;;;;17.13;5.05;;;;;;;6.84;100.00;102973.66;4938729;28;20682;-72
2022/01/13 00:34:06;;;;;;;13.13;3.42;;;;;;;6.87;100.00;102978.50;4950283;29;20027;-72
2022/01/13 00:36:36;;;;;;;12.43;3.40;;;;;;;6.98;100.00;102975.53;4945125;29;20054;-72
2022/01/13 00:39:04;;;;;;;16.17;3.25;;;;;;;6.94;100.00;102973.66;4937901;29;20118;-72
2022/01/13 00:41:30;;;;;;;5.40;3.33;;;;;;;6.89;100.00;102982.50;4953138;28;20039;-72
2022/01/13 00:43:57;;;;;;;10.10;2.95;;;;;;;6.82;100.00;102981.16;4943126;29;20411;-72
2022/01/13 00:46:26;;;;;;;14.07;3.75;;;;;;;6.64;100.00;102985.22;4963565;28;20043;-72
2022/01/13 00:48:54;;;;;;;11.10;3.25;;;;;;;6.81;100.00;102991.09;4949781;28;20031;-72
2022/01/13 00:51:22;;;;;;;6.07;2.63;;;;;;;6.72;100.00;102992.72;4952020;28;20098;-72
2022/01/13 00:53:51;;;;;;;7.82;2.92;;;;;;;6.82;100.00;102997.25;4936623;29;20052;-72
2022/01/13 00:56:18;;;;;;;7.28;3.35;;;;;;;6.96;100.00;102992.94;4934039;29;20563;-72
2022/01/13 00:58:43;;;;;;;11.48;3.15;;;;;;;6.79;100.00;102989.75;4952085;28;20028;-72
2022/01/13 01:01:09;;;;;;;10.32;3.33;;;;;;;6.66;100.00;102993.78;4952458;28;20507;-72
2022/01/13 01:03:35;;;;;;;13.35;3.90;;;;;;;6.64;100.00;102979.88;4967719;28;20118;-72
2022/01/13 01:06:03;;;;;;;9.40;3.78;;;;;;;6.69;100.00;102982.56;4946177;28;20036;-72
2022/01/13 01:08:31;;;;;;;9.88;2.92;;;;;;;6.59;100.00;102969.19;4952414;28;20132;-72
2022/01/13 01:10:59;;;;;;;9.00;3.88;;;;;;;6.57;100.00;102965.16;4951668;28;20039;-72
2022/01/13 01:13:28;;;;;;;18.20;3.85;;;;;;;6.59;100.00;102955.00;4944806;28;20031;-72
2022/01/13 01:15:56;;;;;;;10.88;3.28;;;;;;;6.65;100.00;102957.41;4954260;28;20202;-72
2022/01/13 01:23:57;;;;;;;12.15;3.35;;;;;;;6.85;100.00;102951.19;4952303;28;20043;-72
2022/01/13 01:31:36;;;;;;;9.35;3.05;;;;;;;6.90;100.00;102946.63;4951092;28;20031;-72
2022/01/13 01:36:37;;;;;;;9.15;3.13;;;;;;;6.95;100.00;102933.19;4947426;28;20413;-72
2022/01/13 01:39:06;;;;;;;8.25;3.60;;;;;;;6.88;100.00;102943.41;4952434;28;20042;-72
2022/01/13 01:41:35;;;;;;;13.80;3.88;;;;;;;6.76;100.00;102936.75;4932441;29;20134;-72
2022/01/13 01:44:12;;;;;;;10.05;4.00;;;;;;;6.77;100.00;102941.84;4937461;29;20036;-72
2022/01/13 01:46:39;;;;;;;7.13;2.88;;;;;;;6.82;100.00;102930.28;4933022;29;20049;-72
2022/01/13 01:49:18;;;;;;;14.68;4.60;;;;;;;6.98;100.00;102910.44;4933248;29;20035;-72
2022/01/13 01:51:45;;;;;;;9.57;3.08;;;;;;;6.81;100.00;102918.00;4948268;28;20037;-72
2022/01/13 01:54:11;;;;;;;10.63;3.85;;;;;;;6.84;100.00;102920.13;4952201;28;20058;-72
2022/01/13 01:56:38;;;;;;;13.20;4.35;;;;;;;6.79;100.00;102929.00;4942247;29;20086;-72
2022/01/13 01:59:11;;;;;;;14.32;3.60;;;;;;;6.70;100.00;102925.25;4952138;28;20023;-72
2022/01/13 02:01:36;;;;;;;10.23;3.10;;;;;;;6.64;100.00;102930.91;4964234;28;20047;-72
2022/01/13 02:04:02;;;;;;;15.60;4.72;;;;;;;6.96;100.00;102918.75;4936810;29;20035;-72
2022/01/13 02:06:28;;;;;;;14.75;4.10;;;;;;;6.93;100.00;102919.28;4947126;28;20032;-72
2022/01/13 02:08:53;;;;;;;14.90;4.78;;;;;;;6.92;100.00;102912.34;4966472;28;20030;-72
2022/01/13 02:11:20;;;;;;;17.55;5.22;;;;;;;6.92;100.00;102898.13;4934688;28;20040;-72
2022/01/13 02:13:50;;;;;;;13.90;4.55;;;;;;;6.96;100.00;102908.03;4933261;29;20040;-72
2022/01/13 02:19:01;;;;;;;9.93;3.33;;;;;;;6.91;100.00;102897.31;4968897;28;20373;-72
2022/01/13 02:21:27;;;;;;;12.15;4.32;;;;;;;6.99;100.00;102894.06;4950426;28;20031;-72
2022/01/13 02:23:55;;;;;;;13.38;3.78;;;;;;;6.92;100.00;102901.63;4958890;28;20042;-72
2022/01/13 02:26:21;;;;;;;10.68;2.67;;;;;;;6.92;100.00;102893.59;4936864;29;20043;-72
2022/01/13 02:28:48;;;;;;;6.47;2.65;;;;;;;7.00;100.00;102901.06;4938977;29;20035;-72
2022/01/13 02:31:14;;;;;;;10.40;3.75;;;;;;;6.95;100.00;102895.69;4941034;29;20043;-72
2022/01/13 02:33:40;;;;;;;12.65;3.58;;;;;;;6.84;100.00;102896.00;4947603;29;20549;-72
2022/01/13 02:36:07;;;;;;;12.70;3.85;;;;;;;7.08;100.00;102894.31;4941554;28;20032;-72
2022/01/13 02:38:33;;;;;;;16.65;3.97;;;;;;;7.13;100.00;102889.72;4947437;28;20921;-72
2022/01/13 02:40:59;;;;;;;7.50;2.90;;;;;;;7.00;100.00;102882.31;4954118;28;20216;-73
2022/01/13 02:43:26;;;;;;;21.45;3.90;;;;;;;6.91;100.00;102873.22;4954897;29;20074;-72
2022/01/13 02:46:17;;;;;;;15.82;3.65;;;;;;;6.82;100.00;102868.72;4944489;28;20046;-72
2022/01/13 02:48:43;;;;;;;;;;;;;;;6.91;100.00;102870.53;4941365;29;20031;-73
2022/01/13 02:51:11;;;;;;;6.10;2.88;;;;;;;6.72;100.00;102874.91;4935729;29;20494;-72
2022/01/13 02:53:37;;;;;;;11.88;3.75;;;;;;;6.99;100.00;102872.66;4936419;29;20572;-72
2022/01/13 02:56:06;;;;;;;12.35;4.32;;;;;;;7.15;100.00;102876.88;4950347;29;20188;-72
2022/01/13 02:58:34;;;;;;;9.43;3.63;;;;;;;7.05;100.00;102878.78;4970054;28;20123;-72
2022/01/13 03:01:01;;;;;;;17.38;4.05;;;;;;;7.08;100.00;102880.94;4953821;28;20047;-72
2022/01/13 03:03:28;;;;;;;12.15;3.60;;;;;;;6.91;100.00;102872.44;4951236;28;20207;-72
2022/01/13 03:05:54;;;;;;;8.85;3.28;;;;;;;6.96;100.00;102875.91;4951183;28;20039;-72
2022/01/13 03:08:19;;;;;;;12.18;4.03;;;;;;;6.82;100.00;102885.59;4942576;29;20044;-72
2022/01/13 03:10:45;;;;;;;12.30;3.38;;;;;;;7.14;100.00;102885.19;4954836;28;20039;-72
2022/01/13 03:13:10;;;;;;;14.30;3.85;;;;;;;7.05;100.00;102886.81;4952726;29;20090;-72
2022/01/13 03:15:36;;;;;;;15.02;4.00;;;;;;;7.01;100.00;102886.56;4951196;28;20047;-72
2022/01/13 03:18:01;;;;;;;11.68;3.50;;;;;;;6.93;100.00;102873.75;4944339;28;20676;-72
2022/01/13 03:20:26;;;;;;;14.50;3.92;;;;;;;6.94;100.00;102872.69;4936052;29;20118;-72
2022/01/13 03:22:52;;;;;;;15.20;4.70;;;;;;;6.91;100.00;102870.53;4943490;28;20110;-72
2022/01/13 03:25:22;;;;;;;13.90;4.25;;;;;;;6.86;100.00;102861.75;4941921;28;20047;-72
2022/01/13 03:28:03;;;;;;;8.80;4.00;;;;;;;6.87;100.00;102866.81;4951700;28;20038;-71
2022/01/13 03:30:29;;;;;;;16.55;3.20;;;;;;;6.91;100.00;102864.41;4953000;28;20043;-71
2022/01/13 03:32:54;;;;;;;16.75;4.18;;;;;;;6.94;100.00;102863.84;4953247;28;20102;-71
2022/01/13 03:35:20;;;;;;;16.58;5.05;;;;;;;7.15;100.00;102866.16;4945854;29;20071;-71
2022/01/13 03:37:45;;;;;;;13.95;4.78;;;;;;;7.25;100.00;102892.06;4952275;28;20408;-71
2022/01/13 03:40:11;;;;;;;11.25;3.38;;;;;;;7.21;100.00;102891.03;4952248;28;20039;-71
2022/01/13 03:42:36;;;;;;;14.68;4.97;;;;;;;7.29;100.00;102891.25;4943270;28;20043;-71
2022/01/13 03:45:02;;;;;;;10.80;4.05;;;;;;;7.19;100.00;102885.16;4951857;29;20412;-71
2022/01/13 03:47:28;;;;;;;16.58;4.60;;;;;;;6.92;100.00;102890.91;4951180;28;20130;-71
2022/01/13 03:49:54;;;;;;;17.27;4.65;;;;;;;7.13;100.00;102896.97;4952483;28;20397;-71
2022/01/13 03:52:22;;;;;;;21.30;4.45;;;;;;;6.89;100.00;102891.44;4954200;28;20039;-71
2022/01/13 03:55:36;;;;;;;19.17;4.65;;;;;;;6.98;100.00;102884.44;4953611;28;20050;-71
2022/01/13 03:58:16;;;;;;;12.05;4.30;;;;;;;7.20;100.00;102892.13;4906009;29;20033;-71
2022/01/13 04:00:56;;;;;;;14.95;5.25;;;;;;;6.95;100.00;102889.56;4941481;29;20054;-71
2022/01/13 04:03:22;;;;;;;21.67;4.32;;;;;;;7.20;100.00;102886.75;4950485;29;20427;-71
2022/01/13 04:06:08;;;;;;;11.70;4.60;;;;;;;7.19;100.00;102877.09;4944512;29;20159;-71
2022/01/13 04:08:34;;;;;;;14.00;4.03;;;;;;;7.14;100.00;102869.09;4934989;29;20034;-71
2022/01/13 04:11:10;;;;;;;15.98;4.15;;;;;;;7.06;100.00;102856.28;4940535;29;20031;-71
2022/01/13 04:16:16;;;;;;;7.05;3.05;;;;;;;7.14;100.00;102845.00;4938892;28;20031;-71
2022/01/13 04:18:42;;;;;;;17.40;4.50;;;;;;;7.26;100.00;102842.75;4948000;29;20056;-71
2022/01/13 04:21:07;;;;;;;14.85;4.60;;;;;;;7.01;100.00;102841.03;4946283;29;20071;-71
2022/01/13 04:23:33;;;;;;;12.15;3.70;;;;;;;7.21;100.00;102838.25;4950512;28;20035;-71
2022/01/13 04:25:59;;;;;;;17.80;4.18;;;;;;;7.23;100.00;102846.00;4989655;23;20565;-71
2022/01/13 04:28:29;;;;;;;10.45;2.88;;;;;;;7.17;100.00;102847.91;4972189;28;20065;-71
2022/01/13 04:31:01;;;;;;;11.90;2.95;;;;;;;7.32;100.00;102857.72;4970191;28;20112;-71
2022/01/13 04:33:35;;;;;;;17.20;4.03;;;;;;;7.21;100.00;102848.16;4970018;28;20093;-71
2022/01/13 04:36:02;;;;;;;16.70;5.32;;;;;;;7.17;100.00;102860.50;4960260;28;20122;-71
2022/01/13 04:38:28;;;;;;;16.95;4.03;;;;;;;7.12;100.00;102847.94;4965871;28;20046;-71
2022/01/13 04:40:59;;;;;;;12.95;3.90;;;;;;;7.04;100.00;102842.38;4946045;28;20559;-71
2022/01/13 04:43:25;;;;;;;;;;;;;;;6.99;100.00;102847.75;4972634;28;20034;-71
2022/01/13 04:45:51;;;;;;;16.98;3.20;;;;;;;7.28;100.00;102837.91;4967595;28;19921;-71
2022/01/13 04:48:17;;;;;;;11.95;3.90;;;;;;;7.23;100.00;102829.94;4967944;28;20036;-71
2022/01/13 04:50:44;;;;;;;13.70;3.80;;;;;;;7.22;100.00;102826.44;4947507;29;20496;-71
2022/01/13 04:53:10;;;;;;;9.13;3.40;;;;;;;7.12;100.00;102839.13;4952444;28;20114;-71
2022/01/13 04:55:37;;;;;;;12.13;3.15;;;;;;;7.30;100.00;102828.53;4948035;28;20031;-71
2022/01/13 04:58:05;;;;;;;10.95;3.65;;;;;;;7.05;100.00;102825.22;4951468;28;20043;-71
2022/01/13 05:00:33;;;;;;;9.50;3.58;;;;;;;7.18;100.00;102825.41;4952333;28;20027;-71
2022/01/13 05:02:59;;;;;;;13.43;4.13;;;;;;;7.26;100.00;102815.97;4950444;28;20038;-71
2022/01/13 05:05:25;;;;;;;13.90;5.22;;;;;;;7.13;100.00;102822.75;4961779;28;20114;-71
2022/01/13 05:07:54;;;;;;;20.20;4.20;;;;;;;7.16;100.00;102822.19;4952769;28;20046;-71
2022/01/13 05:10:19;;;;;;;17.77;5.03;;;;;;;7.32;100.00;102821.03;4948997;28;20039;-71
2022/01/13 05:12:47;;;;;;;19.02;3.60;;;;;;;7.22;100.00;102815.72;4950505;28;20031;-71
2022/01/13 05:15:25;;;;;;;12.10;3.78;;;;;;;7.18;100.00;102819.25;4951422;28;20027;-71
2022/01/13 05:20:28;;;;;;;11.73;3.58;;;;;;;7.38;100.00;102824.47;4951125;28;20043;-71
2022/01/13 05:22:54;;;;;;;11.02;3.80;;;;;;;7.52;100.00;102811.22;4951187;28;20513;-71
2022/01/13 05:25:20;;;;;;;12.05;3.85;;;;;;;7.23;100.00;102809.31;4939692;28;20074;-71
2022/01/13 05:27:47;;;;;;;20.65;3.38;;;;;;;7.14;100.00;102805.59;4955055;28;20033;-71
2022/01/13 05:30:15;;;;;;;10.90;3.45;;;;;;;7.20;100.00;102799.13;4953598;28;20045;-71
2022/01/13 05:32:41;;;;;;;15.43;4.40;;;;;;;7.16;100.00;102800.75;4951426;29;20151;-71
2022/01/13 05:35:07;;;;;;;17.10;5.22;;;;;;;7.17;100.00;102814.97;4950503;28;20122;-71
2022/01/13 05:37:33;;;;;;;9.30;3.33;;;;;;;7.19;100.00;102802.91;4952170;28;20118;-71
2022/01/13 05:40:01;;;;;;;15.30;3.40;;;;;;;7.06;100.00;102808.88;4948858;28;20869;-71
2022/01/13 05:42:29;;;;;;;15.20;4.32;;;;;;;7.36;100.00;102815.09;4966135;28;20035;-71
2022/01/13 05:44:56;;;;;;;11.80;3.53;;;;;;;7.35;100.00;102805.47;4966006;28;20043;-71
2022/01/13 05:47:21;;;;;;;13.48;4.55;;;;;;;7.38;100.00;102807.56;4955218;28;20332;-71
2022/01/13 05:49:47;;;;;;;10.40;3.47;;;;;;;7.28;100.00;102819.16;4951080;28;20122;-71
2022/01/13 05:52:14;;;;;;;11.98;3.60;;;;;;;7.21;100.00;102813.31;4954242;28;20070;-71
2022/01/13 05:54:40;;;;;;;11.05;2.97;;;;;;;7.16;100.00;102808.78;4952677;28;20042;-71
2022/01/13 05:57:07;;;;;;;9.23;3.45;;;;;;;7.19;100.00;102810.13;4955454;28;20428;-71
2022/01/13 05:59:34;;;;;;;15.65;3.55;;;;;;;7.19;100.00;102800.22;4955024;28;20399;-71
2022/01/13 06:02:00;;;;;;;22.40;4.15;;;;;;;7.39;100.00;102798.47;4951672;28;20038;-71
2022/01/13 06:04:25;;;;;;;16.98;4.47;;;;;;;7.44;100.00;102806.44;4960306;28;20132;-71
2022/01/13 06:06:51;;;;;;;8.80;3.85;;;;;;;7.30;100.00;102801.75;4963747;28;20031;-71
2022/01/13 06:09:16;;;;;;;15.13;3.67;;;;;;;7.30;100.00;102806.28;4954515;28;20035;-71
2022/01/13 06:11:52;;;;;;;15.23;3.88;;;;;;;7.47;100.00;102805.91;4948298;28;20378;-72
2022/01/13 06:14:17;;;;;;;17.10;3.75;;;;;;;7.32;100.00;102810.31;4958076;28;20112;-73
2022/01/13 06:16:43;;;;;;;13.20;3.83;;;;;;;7.41;100.00;102807.84;4957383;28;20027;-73
2022/01/13 06:19:08;;;;;;;14.57;3.20;;;;;;;7.60;100.00;102802.56;4953214;29;20669;-73
2022/01/13 06:21:34;;;;;;;17.42;5.40;;;;;;;7.49;100.00;102798.38;4959058;28;20061;-73
2022/01/13 06:23:59;;;;;;;11.38;3.53;;;;;;;7.40;100.00;102798.19;4953381;28;20031;-73
2022/01/13 06:26:26;;;;;;;13.77;3.63;;;;;;;7.42;100.00;102797.88;4954864;28;20157;-73
2022/01/13 06:28:51;;;;;;;16.52;4.85;;;;;;;7.63;100.00;102804.69;4950583;28;20019;-73
2022/01/13 06:31:17;;;;;;;12.27;3.67;;;;;;;7.42;100.00;102808.63;4969041;28;20526;-73
2022/01/13 06:33:42;;;;;;;16.10;3.55;;;;;;;7.39;100.00;102814.53;4963995;28;20122;-74
2022/01/13 06:36:08;;;;;;;11.23;3.42;;;;;;;7.43;100.00;102812.91;4953659;28;20643;-71
2022/01/13 06:38:33;;;;;;;16.55;4.57;;;;;;;7.39;100.00;102807.31;4953428;28;20035;-71
2022/01/13 06:41:01;;;;;;;11.10;2.80;;;;;;;7.54;100.00;102817.09;4962580;28;20035;-71
2022/01/13 06:43:27;;;;;;;12.27;4.32;;;;;;;7.65;100.00;102815.94;4963672;28;20713;-71
2022/01/13 06:45:53;;;;;;;18.30;4.30;;;;;;;7.71;100.00;102802.22;4954439;28;20034;-71
2022/01/13 06:48:20;;;;;;;9.25;3.15;;;;;;;7.60;100.00;102802.56;4955549;28;20043;-71
2022/01/13 06:50:45;;;;;;;18.02;4.45;;;;;;;7.60;100.00;102807.94;4953830;28;20109;-71
2022/01/13 06:53:11;;;;;;;22.65;3.47;;;;;;;7.51;100.00;102812.31;4954958;29;20050;-71
2022/01/13 06:55:36;;;;;;;24.33;5.00;;;;;;;7.56;100.00;102804.22;4951382;29;20059;-71
2022/01/13 06:58:02;;;;;;;14.60;5.05;;;;;;;7.72;100.00;102808.38;4954695;29;20526;-71
2022/01/13 07:00:28;;;;;;;12.73;4.45;;;;;;;7.77;100.00;102811.81;4962027;28;20046;-71
2022/01/13 07:02:56;;;;;;;19.05;4.03;;;;;;;7.53;100.00;102813.63;4945069;28;20452;-71
2022/01/13 07:05:21;;;;;;;15.48;5.78;;;;;;;7.72;100.00;102809.19;4961516;28;20058;-72
2022/01/13 07:07:47;;;;;;;17.15;5.60;;;;;;;7.69;100.00;102806.25;4958636;28;20460;-71
2022/01/13 07:10:13;;;;;;;16.73;5.18;;;;;;;7.62;100.00;102813.81;4952390;28;20034;-71
2022/01/13 07:12:40;;;;;;;18.85;4.90;;;;;;;7.63;100.00;102820.78;4954001;28;20042;-72
2022/01/13 07:15:07;;;;;;;16.17;4.65;;;;;;;7.53;100.00;102821.66;4951248;28;20485;-72
2022/01/13 07:17:33;;;;;;;15.32;3.60;;;;;;;7.79;100.00;102830.28;4952173;28;20042;-71
2022/01/13 07:19:58;;;;;;;11.70;3.78;;;;;;;7.74;100.00;102828.44;4952892;28;20042;-72
2022/01/13 07:22:24;;;;;;;16.63;4.20;;;;;;;7.61;100.00;102822.94;4954120;28;20119;-72
2022/01/13 07:24:49;;;;;;;15.70;3.80;;;;;;;7.70;100.00;102830.13;4955073;28;20373;-71
2022/01/13 07:27:14;;;;;;;15.93;3.65;;;;;;;7.56;100.00;102842.56;4953727;28;20039;-72
2022/01/13 07:29:42;;;;;;;24.23;4.63;;;;;;;7.80;100.00;102839.94;4951559;28;20484;-72
2022/01/13 07:32:12;;;;;;;13.90;4.22;;;;;;;7.83;100.00;102853.59;4947747;28;20058;-72
2022/01/13 07:34:38;;;;;;;21.48;4.72;;;;;;;7.82;100.00;102851.97;4948214;29;20082;-71
2022/01/13 07:37:07;;;;;;;7.30;3.75;;;;;;;7.78;100.00;102852.84;4952850;28;20323;-72
2022/01/13 07:39:33;;;;;;;16.40;3.97;;;;;;;7.82;100.00;102843.16;4952801;28;20114;-71
2022/01/13 07:41:59;;;;;;;15.02;4.15;;;;;;;7.72;100.00;102851.28;4952357;28;20445;-71
2022/01/13 07:44:24;;;;;;;23.27;5.65;;;;;;;7.66;100.00;102853.22;4951281;28;20043;-71
2022/01/13 07:46:49;;;;;;;19.90;4.53;;;;;;;7.72;100.00;102856.66;4959219;28;20034;-72
2022/01/13 07:49:15;;;;;;;13.68;4.75;;;;;;;7.79;100.00;102857.91;4953016;28;20027;-72
2022/01/13 07:51:40;;;;;;;16.63;4.47;;;;;;;7.77;100.00;102870.00;4955474;28;20035;-71
2022/01/13 07:54:06;;;;;;;14.07;5.10;;;;;;;7.70;100.00;102854.25;4958790;28;20483;-72
2022/01/13 07:56:32;;;;;;;19.08;5.32;;;;;;;7.67;100.00;102856.66;4958439;28;20047;-71
2022/01/13 07:58:57;;;;;;;14.20;4.63;;;;;;;7.84;100.00;102855.19;4949068;28;20142;-71
2022/01/13 08:01:23;;;;;;;18.13;4.57;;;;;;;7.84;100.00;102849.81;4964411;28;20043;-71
2022/01/13 08:03:48;;;;;;;26.50;5.18;;;;;;;7.90;100.00;102856.75;4955386;28;20134;-71
2022/01/13 08:06:15;;;;;;;20.10;4.80;;;;;;;7.78;100.00;102863.56;4955686;28;20062;-72
2022/01/13 08:08:40;;;;;;;9.60;3.38;;;;;;;7.71;100.00;102852.34;4952457;28;20031;-72
2022/01/13 08:11:08;;;;;;;9.80;3.60;;;;;;;7.85;100.00;102856.78;4951522;28;20051;-71
2022/01/13 08:13:35;;;;;;;9.13;3.85;;;;;;;7.67;100.00;102870.06;4952651;28;20110;-72
2022/01/13 08:16:06;;;;;;;13.90;4.03;;;;;;;7.98;100.00;102877.59;4951699;28;20050;-71
2022/01/13 08:21:17;;;;;;;15.93;5.05;;;;;;;8.06;100.00;102873.50;4957679;28;20457;-71
2022/01/13 08:23:42;;;;;;;13.95;4.32;;;;;;;7.93;100.00;102868.81;4950762;28;20019;-71
2022/01/13 08:26:08;;;;;;;19.20;4.78;;;;;;;7.92;100.00;102867.19;4945643;28;20035;-71
2022/01/13 08:28:33;;;;;;;13.05;4.80;;;;;;;7.81;100.00;102881.78;4963772;28;20034;-71
2022/01/13 08:30:59;;;;;;;13.02;4.72;;;;;;;7.93;100.00;102868.81;4952136;28;20043;-71
2022/01/13 08:33:25;;;;;;;18.38;4.82;;;;;;;7.72;100.00;102872.72;4954520;28;20051;-72
2022/01/13 08:35:52;;;;;;;10.00;4.72;;;;;;;7.77;100.00;102870.00;4958474;28;20039;-72
2022/01/13 08:38:19;;;;;;;11.10;4.72;;;;;;;7.86;100.00;102887.09;4955686;28;20058;-72
2022/01/13 08:40:47;;;;;;;12.90;4.28;;;;;;;7.95;100.00;102874.69;4967927;28;20039;-72
2022/01/13 08:43:14;;;;;;;15.57;4.47;;;;;;;7.78;100.00;102882.34;4962434;28;20369;-72
2022/01/13 08:45:40;;;;;;;17.98;4.50;;;;;;;7.73;100.00;102882.38;4958751;28;20039;-72
2022/01/13 08:48:06;;;;;;;13.32;4.45;;;;;;;7.88;100.00;102884.91;4961737;28;20438;-71
2022/01/13 08:50:31;;;;;;;17.13;4.78;;;;;;;7.99;100.00;102884.56;4955630;28;20043;-72
2022/01/13 08:52:56;;;;;;;16.85;5.05;;;;;;;8.01;100.00;102882.38;4951117;28;20031;-71
2022/01/13 08:55:22;;;;;;;9.73;4.53;;;;;;;7.81;100.00;102887.94;4953939;28;20033;-71
2022/01/13 08:57:47;;;;;;;10.73;4.03;;;;;;;7.79;100.00;102892.78;4954083;28;20047;-71
2022/01/13 09:00:14;;;;;;;16.17;5.10;;;;;;;7.63;100.00;102882.44;4957231;28;20035;-71
2022/01/13 09:02:42;;;;;;;15.55;5.07;;;;;;;7.72;100.00;102888.81;4955674;28;20074;-72
2022/01/13 09:05:08;;;;;;;16.30;4.60;;;;;;;7.79;100.00;102897.34;4954660;28;20039;-71
2022/01/13 09:07:34;;;;;;;14.70;4.28;;;;;;;7.71;100.00;102882.66;4947861;28;20746;-72
2022/01/13 09:09:59;;;;;;;18.85;3.80;;;;;;;7.74;100.00;102897.38;4947476;28;20036;-72
2022/01/13 09:12:25;;;;;;;13.18;4.35;;;;;;;7.78;100.00;102885.81;4950519;28;20078;-72
2022/01/13 09:14:57;;;;;;;11.27;3.53;;;;;;;7.87;100.00;102875.28;4956974;28;20082;-72
2022/01/13 09:17:24;;;;;;;10.80;3.83;;;;;;;7.74;100.00;102875.94;4956070;28;20035;-71
2022/01/13 09:19:50;;;;;;;16.70;4.95;;;;;;;7.48;100.00;102869.97;4950021;28;20098;-72
2022/01/13 09:22:15;;;;;;;23.08;5.13;;;;;;;7.56;100.00;102864.00;4945296;28;20042;-72
2022/01/13 09:24:43;;;;;;;12.30;4.05;;;;;;;7.78;100.00;102861.66;4947407;28;20408;-71
2022/01/13 09:27:09;;;;;;;13.57;4.40;;;;;;;7.54;100.00;102860.81;4950372;28;20043;-72
2022/01/13 09:29:34;;;;;;;14.77;4.53;;;;;;;7.81;100.00;102850.41;4948243;29;20118;-72
2022/01/13 09:32:00;;;;;;;15.50;4.68;;;;;;;7.66;100.00;102858.56;4946318;28;20082;-72
2022/01/13 09:34:25;;;;;;;10.23;3.50;;;;;;;7.80;100.00;102846.09;4957586;28;20403;-71
2022/01/13 09:36:51;;;;;;;13.27;3.70;;;;;;;7.67;100.00;102849.44;4955815;28;20065;-72
2022/01/13 09:39:16;;;;;;;11.02;4.63;;;;;;;7.86;100.00;102847.66;4947871;28;20047;-71
2022/01/13 09:41:44;;;;;;;13.85;4.00;;;;;;;7.58;100.00;102845.75;4955649;28;20027;-72
2022/01/13 09:44:13;;;;;;;14.85;4.57;;;;;;;7.55;100.00;102837.47;4948634;28;20027;-72
2022/01/13 09:46:39;;;;;;;18.42;4.88;;;;;;;7.58;100.00;102837.72;4939433;28;20089;-72
2022/01/13 09:49:05;;;;;;;12.05;3.67;;;;;;;7.92;100.00;102843.03;4951343;28;20034;-72
2022/01/13 09:51:33;;;;;;;13.40;4.45;;;;;;;7.96;100.00;102839.53;4955429;28;20043;-71
2022/01/13 09:53:59;;;;;;;14.10;4.82;;;;;;;7.75;100.00;102835.44;4953943;28;20031;-72
2022/01/13 09:56:25;;;;;;;13.30;4.68;;;;;;;7.64;100.00;102827.75;4958966;28;20496;-71
2022/01/13 09:58:50;;;;;;;16.48;4.82;;;;;;;7.68;100.00;102824.22;4957913;28;20114;-72
2022/01/13 10:01:16;;;;;;;12.55;4.68;;;;;;;7.69;100.00;102825.81;4953500;28;20050;-72
2022/01/13 10:03:42;;;;;;;10.55;3.53;;;;;;;7.78;100.00;102821.44;4953404;28;20038;-72
2022/01/13 10:06:12;;;;;;;8.70;3.83;;;;;;;7.75;100.00;102824.69;4950527;28;20122;-72
2022/01/13 10:09:05;;;;;;;11.63;3.90;;;;;;;7.82;100.00;102827.06;4950501;28;20583;-72
2022/01/13 10:11:39;;;;;;;10.88;4.82;;;;;;;7.78;100.00;102834.06;4947144;28;20082;-72
2022/01/13 10:16:23;;;;;;;12.18;4.72;;;;;;;7.76;100.00;102815.56;4956515;28;20422;-72
2022/01/13 10:17:10;;;;;;;4.95;2.88;;;;;;;7.82;100.00;102829.75;4946771;28;20054;-71
2022/01/13 10:19:42;;;;;;;9.55;3.75;;;;;;;7.86;100.00;102838.81;4968501;28;20813;-72
2022/01/13 10:22:09;;;;;;;14.32;3.70;;;;;;;7.78;100.00;102828.72;4951098;28;20045;-72
2022/01/13 10:24:37;;;;;;;9.63;4.05;;;;;;;7.68;100.00;102834.16;4952572;28;20176;-72
2022/01/13 10:27:05;;;;;;;12.15;3.47;;;;;;;7.76;100.00;102831.66;4980226;23;20045;-72
2022/01/13 10:29:50;;;;;;;11.60;4.25;;;;;;;7.75;100.00;102829.25;4981343;28;20039;-72
2022/01/13 10:32:21;;;;;;;10.23;4.05;;;;;;;7.78;100.00;102834.84;4985284;28;20037;-72
2022/01/13 10:34:50;;;;;;;9.38;3.70;;;;;;;7.63;100.00;102820.78;4983770;28;20575;-71
2022/01/13 10:37:21;;;;;;;10.38;4.03;;;;;;;7.78;100.00;102818.75;4985292;28;20042;-72
2022/01/13 10:39:57;;;;;;;13.63;4.40;;;;;;;7.76;100.00;102828.97;4989817;28;20093;-72
2022/01/13 10:44:59;;;;;;;12.77;4.57;;;;;;;7.79;100.00;102831.09;4990129;28;20034;-72
2022/01/13 10:47:26;;;;;;;11.77;5.07;;;;;;;7.88;100.00;102824.03;4988829;28;20022;-72
2022/01/13 10:50:24;;;;;;;19.38;3.28;;;;;;;7.83;100.00;102828.66;4991703;28;20038;-72
2022/01/13 10:52:49;;;;;;;16.35;4.03;;;;;;;8.01;100.00;102828.72;4963615;28;20056;-72
2022/01/13 10:55:21;;;;;;;15.20;3.97;;;;;;;8.00;100.00;102823.66;4991241;28;20473;-72
2022/01/13 10:57:47;;;;;;;17.20;5.30;;;;;;;8.08;100.00;102831.09;4992251;28;20671;-72
2022/01/13 11:00:16;;;;;;;11.48;4.95;;;;;;;7.70;100.00;102816.72;4990940;28;20153;-72
2022/01/13 11:02:42;;;;;;;14.60;4.72;;;;;;;7.60;100.00;102816.78;4987777;28;20380;-71
2022/01/13 11:05:10;;;;;;;11.57;3.95;;;;;;;7.83;100.00;102820.59;4993058;28;20057;-72
2022/01/13 11:07:37;;;;;;;11.82;3.88;;;;;;;7.79;100.00;102808.84;4990027;28;20038;-71
2022/01/13 11:10:07;;;;;;;9.45;3.38;;;;;;;7.81;100.00;102809.34;4989968;28;20132;-72
2022/01/13 11:12:40;;;;;;;16.60;4.32;;;;;;;7.60;100.00;102805.25;4987528;28;20052;-72
2022/01/13 11:15:08;;;;;;;12.00;4.05;;;;;;;7.60;100.00;102805.25;4990891;28;20037;-71
2022/01/13 11:17:38;;;;;;;6.97;3.25;;;;;;;7.78;100.00;102809.94;4985333;28;20027;-72
2022/01/13 11:20:06;;;;;;;10.02;3.45;;;;;;;7.93;100.00;102813.28;4991611;28;20173;-71
2022/01/13 11:22:36;;;;;;;8.95;3.33;;;;;;;7.97;100.00;102805.47;4992657;28;20453;-71
2022/01/13 11:25:04;;;;;;;9.57;3.17;;;;;;;7.71;100.00;102812.13;4992005;28;20093;-71
2022/01/13 11:27:30;;;;;;;8.30;3.10;;;;;;;7.81;100.00;102812.84;4989420;28;20030;-71
2022/01/13 11:29:57;;;;;;;11.20;3.47;;;;;;;7.81;100.00;102804.81;4991900;28;20410;-71
2022/01/13 11:32:23;;;;;;;6.65;3.30;;;;;;;7.94;100.00;102809.50;4992015;28;20433;-71
2022/01/13 11:34:53;;;;;;;14.32;4.20;;;;;;;7.86;100.00;102794.00;4988304;28;20530;-71
2022/01/13 11:37:25;;;;;;;12.35;3.75;;;;;;;7.80;100.00;102805.88;4985351;28;20403;-71
2022/01/13 11:39:54;;;;;;;12.50;4.65;;;;;;;7.67;100.00;102805.72;4988619;28;20642;-71
2022/01/13 11:42:23;;;;;;;13.75;4.63;;;;;;;7.87;100.00;102794.81;4991369;28;20034;-71
2022/01/13 11:45:10;;;;;;;13.60;3.85;;;;;;;7.90;100.00;102797.72;4987467;28;20430;-71
2022/01/13 11:47:36;;;;;;;15.43;3.88;;;;;;;7.76;100.00;102796.78;4988048;28;20039;-72
2022/01/13 11:50:15;;;;;;;15.85;4.63;;;;;;;7.79;100.00;102809.66;4989347;28;20510;-71
2022/01/13 11:52:47;;;;;;;15.65;4.72;;;;;;;7.92;100.00;102802.81;4991510;28;20636;-71
2022/01/13 11:55:33;;;;;;;9.20;4.03;;;;;;;7.82;100.00;102802.94;4991774;28;20511;-71